Time;durP1;ratioP1;P1;durP2;ratioP2;P2;SDS_P1;SDS_P2;PMS_P1;PMS_P2;Temp;Humidity;BMP_temperature;BMP_pressure;BME280_temperature;BME280_humidity;BME280_pressure;Samples;Min_cycle;Max_cycle;Signal;HPM_P1;HPM_P2
2020/12/10 00:00:08;;;;;;;25.73;21.35;;;;;;;-0.02;100.00;95073.78;1028178;28;20015;-70
2020/12/10 00:00:38;;;;;;;29.65;21.77;;;;;;;0.04;100.00;95074.69;1024476;28;20034;-73
2020/12/10 00:01:10;;;;;;;25.60;21.50;;;;;;;0.01;100.00;95076.94;1028039;28;20462;-71
2020/12/10 00:01:40;;;;;;;26.00;21.92;;;;;;;0.02;100.00;95083.72;1028740;28;20023;-72
2020/12/10 00:02:11;;;;;;;26.52;21.50;;;;;;;0.01;100.00;95082.94;1032358;28;20266;-70
2020/12/10 00:02:42;;;;;;;27.40;21.95;;;;;;;0.02;100.00;95074.13;1036015;28;20022;-70
2020/12/10 00:03:16;;;;;;;27.00;22.20;;;;;;;0.03;100.00;95078.28;1032133;28;20077;-71
2020/12/10 00:03:48;;;;;;;26.48;21.38;;;;;;;0.03;100.00;95075.69;1031717;28;20634;-71
2020/12/10 00:04:19;;;;;;;26.52;22.00;;;;;;;0.04;100.00;95071.25;1032194;28;20340;-69
2020/12/10 00:04:51;;;;;;;27.15;22.35;;;;;;;0.03;100.00;95080.09;1035562;28;20690;-74
2020/12/10 00:05:21;;;;;;;25.98;20.90;;;;;;;0.02;100.00;95075.91;1032576;28;20109;-71
2020/12/10 00:05:52;;;;;;;27.38;21.20;;;;;;;-0.01;100.00;95074.56;1036014;28;20267;-69
2020/12/10 00:06:22;;;;;;;24.55;21.17;;;;;;;0.03;100.00;95073.09;1024172;28;20081;-71
2020/12/10 00:06:55;;;;;;;25.02;21.40;;;;;;;0.03;100.00;95075.69;1028191;28;20058;-72
2020/12/10 00:07:25;;;;;;;25.30;21.75;;;;;;;0.04;100.00;95069.47;1028413;28;20050;-72
2020/12/10 00:07:58;;;;;;;28.77;23.58;;;;;;;0.01;100.00;95072.53;1036266;28;20379;-69
2020/12/10 00:08:29;;;;;;;27.00;22.60;;;;;;;-0.03;100.00;95074.00;1024172;29;20266;-69
2020/12/10 00:08:59;;;;;;;29.42;23.88;;;;;;;-0.01;100.00;95074.56;1023991;29;20287;-70
2020/12/10 00:09:30;;;;;;;28.33;24.05;;;;;;;0.01;100.00;95069.91;1032261;28;20048;-71
2020/12/10 00:10:02;;;;;;;29.33;23.63;;;;;;;0.05;100.00;95071.03;1036282;28;20034;-71
2020/12/10 00:10:33;;;;;;;26.38;21.98;;;;;;;-0.04;100.00;95056.81;1031512;28;20037;-71
2020/12/10 00:11:03;;;;;;;30.73;24.25;;;;;;;-0.01;100.00;95070.16;1027963;28;20277;-69
2020/12/10 00:11:35;;;;;;;27.25;22.25;;;;;;;0.02;100.00;95068.91;1028405;28;20535;-71
2020/12/10 00:12:05;;;;;;;27.05;22.48;;;;;;;0.01;100.00;95067.31;1032641;28;20026;-70
2020/12/10 00:12:39;;;;;;;27.83;22.67;;;;;;;0.03;100.00;95072.31;1031993;28;20270;-70
2020/12/10 00:13:10;;;;;;;27.33;22.48;;;;;;;0.05;100.00;95072.88;1028092;28;20070;-70
2020/12/10 00:13:40;;;;;;;29.58;23.20;;;;;;;0.00;100.00;95073.56;1024200;29;20656;-70
2020/12/10 00:14:13;;;;;;;26.73;22.35;;;;;;;0.03;100.00;95065.28;1028701;28;20062;-72
2020/12/10 00:14:45;;;;;;;29.42;23.35;;;;;;;0.05;100.00;95068.44;1032565;28;20022;-72
2020/12/10 00:15:16;;;;;;;27.70;22.48;;;;;;;0.04;100.00;95072.06;1032535;28;20320;-74
2020/12/10 00:15:47;;;;;;;27.33;22.80;;;;;;;0.07;100.00;95070.81;1032826;28;20269;-71
2020/12/10 00:16:17;;;;;;;27.00;22.80;;;;;;;0.05;100.00;95067.66;1032104;28;20611;-70
2020/12/10 00:16:49;;;;;;;26.52;22.42;;;;;;;0.02;100.00;95062.91;1032423;28;20029;-72
2020/12/10 00:17:29;;;;;;;26.38;22.67;;;;;;;0.03;100.00;95070.47;1032346;28;20304;-73
2020/12/10 00:17:59;;;;;;;27.85;22.35;;;;;;;0.05;100.00;95060.63;1033301;28;20037;-70
2020/12/10 00:18:30;;;;;;;27.35;22.60;;;;;;;0.05;100.00;95065.06;1032034;28;20033;-69
2020/12/10 00:19:00;;;;;;;26.92;21.98;;;;;;;0.06;100.00;95064.03;1033230;28;20074;-73
2020/12/10 00:19:31;;;;;;;28.00;22.08;;;;;;;0.05;100.00;95065.84;1036241;28;20026;-71
2020/12/10 00:20:02;;;;;;;24.05;20.05;;;;;;;0.05;100.00;95063.25;1040067;28;20036;-71
2020/12/10 00:20:33;;;;;;;28.35;21.73;;;;;;;0.05;100.00;95065.84;1040197;28;20504;-73
2020/12/10 00:21:03;;;;;;;26.55;22.17;;;;;;;0.03;100.00;95062.69;1040121;28;20342;-72
2020/12/10 00:21:34;;;;;;;27.95;22.63;;;;;;;0.02;100.00;95061.13;1040242;28;20041;-71
2020/12/10 00:22:07;;;;;;;29.38;23.00;;;;;;;-0.02;100.00;95057.34;1036115;28;20486;-71
2020/12/10 00:22:37;;;;;;;29.55;22.13;;;;;;;-0.07;100.00;95055.47;1031818;28;20030;-70
2020/12/10 00:23:09;;;;;;;24.83;20.83;;;;;;;-0.03;100.00;95058.41;1028320;28;20686;-71
2020/12/10 00:23:42;;;;;;;26.92;22.20;;;;;;;0.02;100.00;95060.31;1028688;28;20034;-71
2020/12/10 00:24:13;;;;;;;25.98;21.60;;;;;;;0.01;100.00;95059.50;1028125;28;20286;-70
2020/12/10 00:24:47;;;;;;;27.77;22.60;;;;;;;0.07;100.00;95061.19;1032887;28;20618;-71
2020/12/10 00:25:17;;;;;;;27.83;22.73;;;;;;;0.04;100.00;95056.47;1036056;28;20494;-70
2020/12/10 00:25:48;;;;;;;29.63;23.27;;;;;;;0.06;100.00;95054.44;1032003;28;20262;-73
2020/12/10 00:26:19;;;;;;;29.63;23.02;;;;;;;0.08;100.00;95062.78;1032537;28;20072;-71
2020/12/10 00:26:49;;;;;;;29.73;23.27;;;;;;;0.05;100.00;95060.63;1031933;28;20053;-70
2020/12/10 00:27:26;;;;;;;29.48;22.27;;;;;;;0.06;100.00;95062.22;1032495;28;20146;-70
2020/12/10 00:27:58;;;;;;;28.05;21.20;;;;;;;0.05;100.00;95063.25;1040158;28;20036;-70
2020/12/10 00:28:28;;;;;;;28.70;21.83;;;;;;;0.03;100.00;95060.06;1045089;28;20313;-74
2020/12/10 00:28:59;;;;;;;29.23;22.67;;;;;;;0.02;100.00;95061.13;1044256;28;20271;-71
2020/12/10 00:29:29;;;;;;;30.52;23.23;;;;;;;0.03;100.00;95061.91;1044382;28;20028;-71
2020/12/10 00:30:02;;;;;;;29.02;23.35;;;;;;;-0.01;100.00;95058.97;1044107;28;20067;-70
2020/12/10 00:30:33;;;;;;;28.85;24.30;;;;;;;0.02;100.00;95065.50;1040291;28;20462;-71
2020/12/10 00:31:04;;;;;;;29.98;23.20;;;;;;;-0.03;100.00;95061.78;1040645;28;20252;-71
2020/12/10 00:31:36;;;;;;;30.08;24.63;;;;;;;-0.02;100.00;95055.56;1040607;28;20060;-70
2020/12/10 00:32:10;;;;;;;33.75;24.63;;;;;;;-0.03;100.00;95061.78;1040443;28;20029;-72
2020/12/10 00:32:41;;;;;;;30.98;23.63;;;;;;;-0.03;100.00;95061.00;1040179;28;20806;-72
2020/12/10 00:33:12;;;;;;;29.42;22.90;;;;;;;-0.05;100.00;95061.22;1040449;28;20348;-71
2020/12/10 00:33:43;;;;;;;28.70;23.10;;;;;;;-0.07;100.00;95062.47;1040205;28;20636;-71
2020/12/10 00:34:14;;;;;;;27.60;21.98;;;;;;;-0.08;100.00;95053.88;1040074;28;20491;-74
2020/12/10 00:34:45;;;;;;;28.73;23.15;;;;;;;-0.07;100.00;95054.69;1039984;28;20348;-75
2020/12/10 00:35:17;;;;;;;30.75;24.38;;;;;;;-0.03;100.00;95061.00;1036041;28;20525;-73
2020/12/10 00:35:49;;;;;;;28.90;23.42;;;;;;;-0.01;100.00;95058.97;1036188;28;20360;-72
2020/12/10 00:36:19;;;;;;;30.98;24.33;;;;;;;-0.04;100.00;95051.59;1040070;28;20268;-73
2020/12/10 00:36:50;;;;;;;32.88;25.60;;;;;;;-0.05;100.00;95057.84;1040168;28;20315;-74
2020/12/10 00:37:20;;;;;;;32.72;25.10;;;;;;;-0.08;100.00;95053.06;1040715;28;20042;-73
2020/12/10 00:37:51;;;;;;;29.40;23.70;;;;;;;-0.08;100.00;95058.28;1040274;28;20033;-72
2020/12/10 00:38:21;;;;;;;31.85;25.10;;;;;;;-0.11;100.00;95061.34;1040646;28;20018;-70
2020/12/10 00:38:52;;;;;;;32.83;23.30;;;;;;;-0.10;100.00;95057.72;1044520;28;20020;-75
2020/12/10 00:39:24;;;;;;;29.08;23.65;;;;;;;-0.05;100.00;95060.44;1035993;28;20022;-76
2020/12/10 00:39:55;;;;;;;31.05;24.10;;;;;;;-0.07;100.00;95052.06;1036192;28;20268;-75
2020/12/10 00:40:25;;;;;;;30.30;24.10;;;;;;;-0.06;100.00;95058.84;1028162;28;20683;-77
2020/12/10 00:40:55;;;;;;;31.42;24.10;;;;;;;-0.07;100.00;95054.69;1032575;28;20023;-72
2020/12/10 00:41:28;;;;;;;32.33;24.67;;;;;;;-0.08;100.00;95059.09;1040290;28;20029;-78
2020/12/10 00:42:00;;;;;;;31.95;24.65;;;;;;;-0.06;100.00;95059.66;1040471;28;20045;-70
2020/12/10 00:42:31;;;;;;;34.05;25.33;;;;;;;-0.04;100.00;95059.41;1032035;28;20423;-72
2020/12/10 00:43:03;;;;;;;32.42;24.48;;;;;;;-0.02;100.00;95057.34;1032127;28;20273;-74
2020/12/10 00:43:35;;;;;;;31.35;24.48;;;;;;;-0.01;100.00;95057.13;1027928;28;20142;-77
2020/12/10 00:44:05;;;;;;;31.85;24.73;;;;;;;-0.07;100.00;95047.66;1029389;28;20735;-70
2020/12/10 00:44:37;;;;;;;30.52;24.02;;;;;;;-0.06;100.00;95045.84;1040261;28;20032;-71
2020/12/10 00:45:08;;;;;;;28.65;23.33;;;;;;;-0.06;100.00;95053.63;1039591;28;20264;-75
2020/12/10 00:45:40;;;;;;;31.20;22.83;;;;;;;-0.08;100.00;95055.69;1031981;28;20030;-71
2020/12/10 00:46:11;;;;;;;31.30;22.98;;;;;;;-0.10;100.00;95048.13;1032583;28;20340;-77
2020/12/10 00:46:45;;;;;;;30.95;23.52;;;;;;;-0.09;100.00;95052.28;1032226;28;20042;-72
2020/12/10 00:47:16;;;;;;;32.85;24.52;;;;;;;-0.09;100.00;95041.13;1036812;28;20744;-72
2020/12/10 00:47:47;;;;;;;32.60;24.77;;;;;;;-0.10;100.00;95049.91;1035877;28;20317;-76
2020/12/10 00:48:17;;;;;;;35.38;26.25;;;;;;;-0.09;100.00;95043.72;1032514;28;20746;-77
2020/12/10 00:48:48;;;;;;;31.85;24.88;;;;;;;-0.13;100.00;95048.56;1032013;28;20124;-73
2020/12/10 00:49:21;;;;;;;34.42;25.63;;;;;;;-0.13;100.00;95040.00;1028166;28;20023;-71
2020/12/10 00:49:51;;;;;;;33.00;24.90;;;;;;;-0.10;100.00;95042.13;1032554;28;20021;-70
2020/12/10 00:50:21;;;;;;;29.27;23.25;;;;;;;-0.07;100.00;95042.44;1036367;28;20281;-71
2020/12/10 00:50:52;;;;;;;28.77;21.88;;;;;;;-0.07;100.00;95042.44;1040572;28;20014;-72
2020/12/10 00:51:23;;;;;;;31.80;23.88;;;;;;;-0.11;100.00;95040.56;1044214;28;20021;-68
2020/12/10 00:51:54;;;;;;;31.27;23.10;;;;;;;-0.08;100.00;95042.69;1044321;28;20123;-70
2020/12/10 00:52:25;;;;;;;29.45;22.75;;;;;;;-0.06;100.00;95043.25;1040202;28;20018;-72
2020/12/10 00:52:56;;;;;;;33.55;25.85;;;;;;;-0.08;100.00;95035.69;1040258;28;20787;-73
2020/12/10 00:53:27;;;;;;;35.10;25.33;;;;;;;-0.09;100.00;95038.50;1040102;28;20524;-75
2020/12/10 00:53:57;;;;;;;33.55;25.67;;;;;;;-0.03;100.00;95035.78;1032082;28;20406;-75
2020/12/10 00:54:28;;;;;;;34.83;26.13;;;;;;;0.00;100.00;95037.16;1032084;28;20261;-69
2020/12/10 00:54:59;;;;;;;29.20;22.77;;;;;;;-0.06;100.00;95040.63;1028067;28;20403;-70
2020/12/10 00:55:31;;;;;;;30.05;22.98;;;;;;;-0.04;100.00;95036.00;1027925;28;20087;-71
2020/12/10 00:56:02;;;;;;;27.58;21.75;;;;;;;-0.07;100.00;95033.88;1032021;28;20637;-75
2020/12/10 00:56:35;;;;;;;28.50;23.25;;;;;;;-0.05;100.00;95039.63;1028857;28;20277;-74
2020/12/10 00:57:13;;;;;;;29.45;23.42;;;;;;;-0.08;100.00;95033.09;1037075;28;20014;-74
2020/12/10 00:57:43;;;;;;;29.38;22.17;;;;;;;-0.08;100.00;95030.50;1038452;28;20349;-76
2020/12/10 00:58:14;;;;;;;27.30;22.45;;;;;;;-0.07;100.00;95029.44;1037657;28;20284;-71
2020/12/10 00:58:45;;;;;;;31.10;23.48;;;;;;;-0.05;100.00;95037.81;1040410;28;20405;-69
2020/12/10 00:59:16;;;;;;;28.60;23.52;;;;;;;-0.07;100.00;95034.66;1040519;28;20032;-77
2020/12/10 00:59:46;;;;;;;32.17;24.27;;;;;;;-0.06;100.00;95031.03;1040241;28;20298;-74
2020/12/10 01:00:17;;;;;;;34.13;24.33;;;;;;;-0.09;100.00;95033.31;1040200;28;20040;-72
2020/12/10 01:00:48;;;;;;;31.45;23.50;;;;;;;-0.07;100.00;95034.66;1040011;28;20026;-73
2020/12/10 01:01:19;;;;;;;36.47;25.95;;;;;;;-0.09;100.00;95036.69;1039844;28;20041;-69
2020/12/10 01:01:51;;;;;;;31.65;23.92;;;;;;;-0.05;100.00;95030.00;1044158;28;20717;-69
2020/12/10 01:02:21;;;;;;;32.05;24.35;;;;;;;-0.06;100.00;95033.66;1044170;28;20271;-76
2020/12/10 01:02:52;;;;;;;30.65;23.73;;;;;;;-0.07;100.00;95034.66;1044282;28;20086;-69
2020/12/10 01:03:23;;;;;;;33.08;23.70;;;;;;;-0.07;100.00;95028.66;1039974;28;20025;-72
2020/12/10 01:03:54;;;;;;;31.70;23.73;;;;;;;-0.11;100.00;95030.16;1036286;28;20101;-70
2020/12/10 01:04:24;;;;;;;34.05;24.88;;;;;;;-0.10;100.00;95032.53;1036443;28;20253;-70
2020/12/10 01:04:55;;;;;;;30.33;22.50;;;;;;;-0.08;100.00;95030.50;1035943;28;20049;-71
2020/12/10 01:05:25;;;;;;;32.50;23.05;;;;;;;-0.06;100.00;95030.22;1039777;28;20088;-70
2020/12/10 01:05:56;;;;;;;35.45;25.00;;;;;;;-0.11;100.00;95033.53;1040244;28;20447;-73
2020/12/10 01:06:26;;;;;;;33.53;24.45;;;;;;;-0.11;100.00;95028.34;1040227;28;20056;-70
2020/12/10 01:06:58;;;;;;;32.00;23.10;;;;;;;-0.12;100.00;95031.97;1040395;28;20068;-71
2020/12/10 01:07:28;;;;;;;31.52;22.83;;;;;;;-0.16;100.00;95036.00;1039723;28;20268;-73
2020/12/10 01:07:59;;;;;;;32.00;24.52;;;;;;;-0.16;100.00;95030.03;1036046;28;20056;-70
2020/12/10 01:08:31;;;;;;;31.83;24.73;;;;;;;-0.14;100.00;95039.22;1036294;28;20021;-70
2020/12/10 01:09:07;;;;;;;33.03;24.30;;;;;;;-0.14;100.00;95036.59;1036486;28;20053;-69
2020/12/10 01:09:37;;;;;;;30.23;22.52;;;;;;;-0.15;100.00;95037.63;1040258;28;20617;-70
2020/12/10 01:10:08;;;;;;;33.30;24.00;;;;;;;-0.16;100.00;95036.00;1040196;28;20268;-73
2020/12/10 01:10:38;;;;;;;36.17;25.30;;;;;;;-0.13;100.00;95035.56;1037481;28;20431;-75
2020/12/10 01:11:09;;;;;;;32.15;24.15;;;;;;;-0.13;100.00;95032.19;1036417;28;20030;-70
2020/12/10 01:11:39;;;;;;;33.53;24.42;;;;;;;-0.11;100.00;95030.94;1036218;28;20084;-72
2020/12/10 01:12:10;;;;;;;33.70;25.35;;;;;;;-0.11;100.00;95032.75;1036170;28;20041;-72
2020/12/10 01:12:41;;;;;;;34.47;25.65;;;;;;;-0.11;100.00;95030.94;1036211;28;20021;-70
2020/12/10 01:13:11;;;;;;;34.95;25.17;;;;;;;-0.12;100.00;95031.97;1032065;28;20089;-69
2020/12/10 01:13:43;;;;;;;30.10;23.42;;;;;;;-0.14;100.00;95035.78;1035691;28;20475;-73
2020/12/10 01:14:14;;;;;;;33.90;24.67;;;;;;;-0.11;100.00;95035.34;1040081;28;20136;-73
2020/12/10 01:14:45;;;;;;;31.65;23.90;;;;;;;-0.10;100.00;95034.31;1040620;28;20355;-70
2020/12/10 01:15:16;;;;;;;32.65;24.55;;;;;;;-0.10;100.00;95032.53;1043583;28;20032;-70
2020/12/10 01:15:46;;;;;;;36.17;26.13;;;;;;;-0.12;100.00;95037.16;1031899;28;20277;-72
2020/12/10 01:16:18;;;;;;;32.22;23.20;;;;;;;-0.08;100.00;95034.88;1032169;28;20022;-72
2020/12/10 01:16:48;;;;;;;31.85;23.60;;;;;;;-0.12;100.00;95026.75;1031793;28;20023;-69
2020/12/10 01:17:19;;;;;;;33.92;24.52;;;;;;;-0.10;100.00;95029.13;1032366;28;20261;-70
2020/12/10 01:17:50;;;;;;;32.13;24.02;;;;;;;-0.11;100.00;95027.56;1036270;28;20410;-70
2020/12/10 01:18:20;;;;;;;31.88;24.35;;;;;;;-0.11;100.00;95033.53;1040034;28;20082;-70
2020/12/10 01:18:51;;;;;;;34.17;23.90;;;;;;;-0.12;100.00;95036.34;1036105;28;20026;-72
2020/12/10 01:19:21;;;;;;;33.88;24.40;;;;;;;-0.14;100.00;95028.00;1036251;28;20378;-70
2020/12/10 01:19:54;;;;;;;35.30;24.65;;;;;;;-0.12;100.00;95025.94;1027277;28;20034;-71
2020/12/10 01:20:26;;;;;;;33.25;24.38;;;;;;;-0.09;100.00;95031.50;1024297;28;20110;-70
2020/12/10 01:20:59;;;;;;;32.42;24.05;;;;;;;-0.10;100.00;95034.31;1028021;28;20266;-71
2020/12/10 01:21:31;;;;;;;33.42;25.25;;;;;;;-0.11;100.00;95030.94;1027009;28;20294;-70
2020/12/10 01:22:01;;;;;;;36.78;27.33;;;;;;;-0.13;100.00;95027.78;1031916;28;20706;-71
2020/12/10 01:22:33;;;;;;;31.88;23.70;;;;;;;-0.11;100.00;95025.72;1027609;28;20270;-72
2020/12/10 01:23:03;;;;;;;32.13;24.45;;;;;;;-0.10;100.00;95029.13;1030984;28;20651;-72
2020/12/10 01:23:34;;;;;;;33.30;24.85;;;;;;;-0.09;100.00;95038.50;1037108;28;20285;-71
2020/12/10 01:24:06;;;;;;;33.72;24.48;;;;;;;-0.13;100.00;95034.78;1037239;28;20018;-72
2020/12/10 01:24:38;;;;;;;35.67;25.35;;;;;;;-0.09;100.00;95025.50;1032817;28;20077;-76
2020/12/10 01:25:08;;;;;;;31.38;24.33;;;;;;;-0.12;100.00;95031.16;1028687;28;20332;-70
2020/12/10 01:25:39;;;;;;;33.03;23.92;;;;;;;-0.16;100.00;95027.44;1033105;28;20046;-73
2020/12/10 01:26:10;;;;;;;31.45;22.85;;;;;;;-0.12;100.00;95028.56;1028932;28;20098;-71
2020/12/10 01:26:42;;;;;;;30.08;23.50;;;;;;;-0.13;100.00;95025.16;1028639;28;20423;-73
2020/12/10 01:27:14;;;;;;;31.52;22.25;;;;;;;-0.10;100.00;95026.50;1032800;28;20272;-70
2020/12/10 01:27:45;;;;;;;30.92;23.02;;;;;;;-0.14;100.00;95028.81;1036930;28;20614;-72
2020/12/10 01:28:16;;;;;;;31.92;24.33;;;;;;;-0.12;100.00;95028.56;1036184;28;20297;-71
2020/12/10 01:28:46;;;;;;;31.92;24.05;;;;;;;-0.15;100.00;95029.81;1029120;28;20038;-72
2020/12/10 01:29:17;;;;;;;33.17;24.13;;;;;;;-0.14;100.00;95028.81;1032902;28;20054;-74
2020/12/10 01:29:49;;;;;;;28.60;22.13;;;;;;;-0.13;100.00;95034.78;1032741;28;20038;-69
2020/12/10 01:30:21;;;;;;;28.98;22.17;;;;;;;-0.12;100.00;95031.16;1033159;28;20038;-73
2020/12/10 01:30:52;;;;;;;30.42;22.73;;;;;;;-0.16;100.00;95032.63;1028754;28;20292;-75
2020/12/10 01:31:22;;;;;;;25.45;20.80;;;;;;;-0.14;100.00;95028.81;1029649;28;20273;-71
2020/12/10 01:31:54;;;;;;;30.02;22.00;;;;;;;-0.15;100.00;95031.63;1032499;28;20088;-68
2020/12/10 01:32:25;;;;;;;27.70;21.23;;;;;;;-0.09;100.00;95030.72;1033081;28;20053;-70
2020/12/10 01:32:57;;;;;;;28.00;21.75;;;;;;;-0.13;100.00;95027.00;1028700;28;20336;-72
2020/12/10 01:33:28;;;;;;;28.63;22.88;;;;;;;-0.08;100.00;95035.69;1029303;28;20277;-73
2020/12/10 01:33:58;;;;;;;31.70;24.40;;;;;;;-0.11;100.00;95028.34;1036770;28;20288;-74
2020/12/10 01:34:29;;;;;;;30.13;22.15;;;;;;;-0.15;100.00;95021.22;1037033;28;20016;-76
2020/12/10 01:34:59;;;;;;;30.70;22.90;;;;;;;-0.13;100.00;95032.19;1036663;28;20072;-72
2020/12/10 01:35:31;;;;;;;30.92;22.67;;;;;;;-0.11;100.00;95033.53;1036081;28;20025;-72
2020/12/10 01:36:01;;;;;;;32.53;24.45;;;;;;;-0.09;100.00;95028.88;1036825;28;20280;-72
2020/12/10 01:36:32;;;;;;;32.90;23.63;;;;;;;-0.11;100.00;95027.56;1040821;28;20053;-69
2020/12/10 01:37:03;;;;;;;31.02;23.63;;;;;;;-0.14;100.00;95023.59;1041138;28;20175;-70
2020/12/10 01:37:38;;;;;;;27.52;22.40;;;;;;;-0.08;100.00;95029.69;1036367;28;20307;-70
2020/12/10 01:38:11;;;;;;;34.22;24.38;;;;;;;-0.09;100.00;95026.28;1036737;28;20030;-72
2020/12/10 01:38:41;;;;;;;30.52;23.95;;;;;;;-0.09;100.00;95020.31;1036897;28;20614;-71
2020/12/10 01:39:12;;;;;;;32.28;24.83;;;;;;;-0.08;100.00;95025.28;1037822;28;20265;-71
2020/12/10 01:39:42;;;;;;;33.22;25.08;;;;;;;-0.07;100.00;95028.66;1040596;28;20029;-75
2020/12/10 01:40:13;;;;;;;33.13;24.13;;;;;;;-0.06;100.00;95028.44;1036830;28;20057;-70
2020/12/10 01:40:50;;;;;;;32.05;23.50;;;;;;;-0.08;100.00;95027.06;1032708;28;20026;-70
2020/12/10 01:41:30;;;;;;;30.15;23.33;;;;;;;-0.14;100.00;95013.19;1033809;28;20513;-70
2020/12/10 01:42:03;;;;;;;32.30;24.70;;;;;;;-0.08;100.00;95017.47;1043561;28;20279;-71
2020/12/10 01:42:35;;;;;;;31.35;23.10;;;;;;;-0.04;100.00;95026.41;1043373;28;20026;-71
2020/12/10 01:43:07;;;;;;;30.45;22.70;;;;;;;0.01;100.00;95022.31;1045132;28;20293;-74
2020/12/10 01:43:39;;;;;;;35.72;26.15;;;;;;;-0.07;100.00;95021.66;1035357;28;20257;-70
2020/12/10 01:44:11;;;;;;;38.88;28.13;;;;;;;-0.07;100.00;95021.66;1033462;28;20750;-71
2020/12/10 01:44:42;;;;;;;36.38;26.40;;;;;;;-0.05;100.00;95018.81;1028861;28;20270;-70
2020/12/10 01:45:13;;;;;;;32.13;24.90;;;;;;;-0.06;100.00;95012.84;1032690;28;20323;-71
2020/12/10 01:45:43;;;;;;;34.13;25.35;;;;;;;-0.05;100.00;95017.00;1028536;28;20314;-71
2020/12/10 01:46:15;;;;;;;35.30;26.02;;;;;;;-0.04;100.00;95018.59;1028613;28;20094;-74
2020/12/10 01:46:46;;;;;;;31.73;24.13;;;;;;;-0.02;100.00;95015.75;1025407;28;20023;-70
2020/12/10 01:47:17;;;;;;;33.38;25.17;;;;;;;-0.09;100.00;95013.28;1029089;28;20262;-70
2020/12/10 01:47:49;;;;;;;31.77;24.30;;;;;;;-0.09;100.00;95015.88;1028548;28;20121;-69
2020/12/10 01:48:23;;;;;;;29.40;22.88;;;;;;;-0.06;100.00;95017.22;1020718;29;20247;-70
2020/12/10 01:48:54;;;;;;;31.30;22.60;;;;;;;-0.06;100.00;95017.22;1024645;29;20019;-74
2020/12/10 01:49:24;;;;;;;30.88;23.23;;;;;;;-0.06;100.00;95012.84;1028614;28;20262;-73
2020/12/10 01:49:55;;;;;;;29.90;22.77;;;;;;;-0.05;100.00;95016.22;1025333;28;20404;-70
2020/12/10 01:50:26;;;;;;;32.13;24.45;;;;;;;-0.05;100.00;95016.22;1028657;28;20018;-72
2020/12/10 01:50:56;;;;;;;31.55;24.73;;;;;;;-0.06;100.00;95018.03;1024750;28;20031;-74
2020/12/10 01:51:27;;;;;;;35.10;25.73;;;;;;;-0.14;100.00;95007.19;1024627;28;20047;-69
2020/12/10 01:51:58;;;;;;;33.72;25.77;;;;;;;-0.09;100.00;95015.88;1028697;28;20019;-70
2020/12/10 01:52:29;;;;;;;38.08;25.38;;;;;;;-0.09;100.00;95015.88;1028107;28;20023;-69
2020/12/10 01:53:00;;;;;;;35.13;26.70;;;;;;;-0.06;100.00;95012.03;1033431;28;20395;-71
2020/12/10 01:53:30;;;;;;;34.83;25.08;;;;;;;-0.06;100.00;95009.44;1032523;28;20268;-71
2020/12/10 01:54:01;;;;;;;33.65;24.88;;;;;;;-0.04;100.00;95012.59;1032637;28;20523;-70
2020/12/10 01:54:32;;;;;;;35.92;26.45;;;;;;;-0.09;100.00;95015.88;1028520;28;20034;-76
2020/12/10 01:55:03;;;;;;;37.50;26.65;;;;;;;-0.16;100.00;95017.81;1029242;28;20277;-69
2020/12/10 01:55:33;;;;;;;31.92;23.63;;;;;;;-0.15;100.00;95008.22;1036687;28;20252;-70
2020/12/10 01:56:04;;;;;;;34.00;24.95;;;;;;;-0.21;100.00;95013.31;1036925;28;20018;-71
2020/12/10 01:56:34;;;;;;;34.33;24.52;;;;;;;-0.23;100.00;95015.34;1036780;28;20383;-71
2020/12/10 01:57:05;;;;;;;34.80;25.30;;;;;;;-0.22;100.00;95014.34;1036808;28;20018;-71
2020/12/10 01:57:36;;;;;;;34.53;24.88;;;;;;;-0.25;100.00;95014.00;1040815;28;20048;-73
2020/12/10 01:58:06;;;;;;;35.45;26.10;;;;;;;-0.23;100.00;95020.56;1040828;28;20022;-77
2020/12/10 01:58:36;;;;;;;38.92;25.52;;;;;;;-0.23;100.00;95019.78;1036739;28;20022;-71
2020/12/10 01:59:07;;;;;;;38.03;25.10;;;;;;;-0.25;100.00;95011.41;1036863;28;20025;-73
2020/12/10 01:59:38;;;;;;;34.65;25.48;;;;;;;-0.28;100.00;95017.06;1036659;28;20006;-71
2020/12/10 02:00:09;;;;;;;36.47;25.80;;;;;;;-0.26;100.00;95010.63;1036921;28;20033;-71
2020/12/10 02:00:39;;;;;;;31.13;24.27;;;;;;;-0.28;100.00;95010.06;1040670;28;20045;-71
2020/12/10 02:01:10;;;;;;;29.48;22.90;;;;;;;-0.23;100.00;95015.34;1036550;28;20319;-70
2020/12/10 02:01:43;;;;;;;31.08;23.73;;;;;;;-0.22;100.00;95014.34;1032754;28;20022;-70
2020/12/10 02:02:14;;;;;;;31.77;24.05;;;;;;;-0.19;100.00;95009.72;1032401;28;20030;-70
2020/12/10 02:02:45;;;;;;;29.65;22.25;;;;;;;-0.19;100.00;95004.50;1028634;28;20269;-70
2020/12/10 02:03:17;;;;;;;32.13;24.38;;;;;;;-0.19;100.00;95004.50;1032095;28;20276;-72
2020/12/10 02:03:52;;;;;;;34.78;24.25;;;;;;;-0.19;100.00;95009.72;1025027;28;20026;-71
2020/12/10 02:04:33;;;;;;;33.03;24.52;;;;;;;-0.23;100.00;94999.75;1029219;28;20748;-72
2020/12/10 02:05:04;;;;;;;33.65;24.63;;;;;;;-0.22;100.00;95005.72;1030938;28;20393;-71
2020/12/10 02:05:44;;;;;;;33.75;25.17;;;;;;;-0.23;100.00;94994.56;1032877;28;20262;-71
2020/12/10 02:06:15;;;;;;;34.95;24.88;;;;;;;-0.23;100.00;94999.75;1036658;28;20526;-69
2020/12/10 02:06:45;;;;;;;32.35;24.10;;;;;;;-0.20;100.00;94993.28;1032625;28;20265;-71
2020/12/10 02:07:16;;;;;;;31.00;24.10;;;;;;;-0.25;100.00;95001.78;1032531;28;20383;-70
2020/12/10 02:07:48;;;;;;;31.40;23.38;;;;;;;-0.21;100.00;94997.72;1024332;28;20086;-73
2020/12/10 02:08:19;;;;;;;30.00;22.80;;;;;;;-0.18;100.00;94993.84;1028474;28;20035;-72
2020/12/10 02:08:49;;;;;;;29.55;22.60;;;;;;;-0.19;100.00;94999.31;1032896;28;20348;-73
2020/12/10 02:09:20;;;;;;;30.38;23.08;;;;;;;-0.26;100.00;94997.63;1037363;28;20065;-70
2020/12/10 02:09:50;;;;;;;30.60;22.58;;;;;;;-0.23;100.00;94999.75;1044889;28;20025;-70
2020/12/10 02:10:22;;;;;;;34.00;24.60;;;;;;;-0.21;100.00;94997.72;1040786;28;20022;-71
2020/12/10 02:10:52;;;;;;;31.98;25.30;;;;;;;-0.21;100.00;94999.53;1040744;28;20025;-72
2020/12/10 02:11:26;;;;;;;32.83;25.35;;;;;;;-0.16;100.00;95001.44;1036704;28;20354;-70
2020/12/10 02:11:56;;;;;;;31.92;23.52;;;;;;;-0.20;100.00;95001.09;1033245;28;20026;-70
2020/12/10 02:12:27;;;;;;;35.88;25.98;;;;;;;-0.13;100.00;94996.56;1028510;28;20266;-70
2020/12/10 02:12:57;;;;;;;34.75;24.73;;;;;;;-0.11;100.00;94999.72;1028645;28;20035;-70
2020/12/10 02:13:28;;;;;;;34.53;26.02;;;;;;;-0.12;100.00;94994.75;1029199;28;20078;-71
2020/12/10 02:13:58;;;;;;;32.67;23.75;;;;;;;-0.11;100.00;94991.94;1032647;28;20455;-69
2020/12/10 02:14:33;;;;;;;27.98;22.23;;;;;;;-0.13;100.00;94990.59;1036737;28;20022;-69
2020/12/10 02:15:04;;;;;;;28.45;21.73;;;;;;;-0.13;100.00;94990.59;1032782;28;20364;-69
2020/12/10 02:15:35;;;;;;;26.92;21.38;;;;;;;-0.13;100.00;94993.19;1029795;28;20795;-70
2020/12/10 02:16:07;;;;;;;27.45;21.38;;;;;;;-0.12;100.00;94994.75;1028764;28;20069;-72
2020/12/10 02:16:38;;;;;;;31.88;24.10;;;;;;;-0.14;100.00;94992.41;1024637;28;20620;-72
2020/12/10 02:17:08;;;;;;;32.78;24.38;;;;;;;-0.12;100.00;94987.75;1028199;28;20278;-69
2020/12/10 02:17:41;;;;;;;32.20;24.10;;;;;;;-0.12;100.00;94992.16;1032239;28;20042;-71
2020/12/10 02:18:13;;;;;;;30.40;22.38;;;;;;;-0.13;100.00;94993.19;1036197;28;20273;-73
2020/12/10 02:18:44;;;;;;;35.45;25.38;;;;;;;-0.14;100.00;94992.41;1036693;28;20261;-74
2020/12/10 02:19:14;;;;;;;34.65;24.83;;;;;;;-0.13;100.00;94990.59;1033027;28;20574;-73
2020/12/10 02:19:46;;;;;;;32.42;24.27;;;;;;;-0.12;100.00;94990.34;1036466;28;20257;-69
2020/12/10 02:20:16;;;;;;;31.30;24.13;;;;;;;-0.09;100.00;94986.50;1032426;28;20123;-70
2020/12/10 02:20:47;;;;;;;37.72;26.08;;;;;;;-0.13;100.00;94978.38;1040817;28;20283;-73
2020/12/10 02:21:17;;;;;;;30.77;24.80;;;;;;;-0.15;100.00;94977.03;1036493;28;20069;-71
2020/12/10 02:21:48;;;;;;;34.63;24.77;;;;;;;-0.09;100.00;94978.69;1036692;28;20014;-70
2020/12/10 02:22:18;;;;;;;31.73;24.38;;;;;;;-0.02;100.00;94979.34;1035611;28;20029;-69
2020/12/10 02:22:56;;;;;;;31.50;24.13;;;;;;;0.01;100.00;94972.91;1032902;28;20027;-72